createdAt,value
2022-10-25T00:00:02.378Z,14.41
2022-10-25T00:05:25.838Z,14.48
2022-10-25T00:10:29.458Z,14.50
2022-10-25T00:15:32.875Z,14.48
2022-10-25T00:20:38.600Z,14.45
2022-10-25T00:25:42.260Z,14.43
2022-10-25T00:30:45.578Z,14.44
2022-10-25T00:35:48.816Z,14.35
2022-10-25T00:40:52.308Z,14.23
2022-10-25T00:45:56.265Z,14.15
2022-10-25T00:51:00.392Z,14.08
2022-10-25T00:56:28.552Z,14.03
2022-10-25T01:01:32.929Z,14.00
2022-10-25T01:06:46.865Z,13.95
2022-10-25T01:11:50.494Z,13.95
2022-10-25T01:17:19.610Z,13.90
2022-10-25T01:23:00.107Z,13.84
2022-10-25T01:28:50.389Z,13.80
2022-10-25T01:34:01.694Z,13.82
2022-10-25T01:39:14.517Z,13.83
2022-10-25T01:52:26.811Z,13.89
2022-10-25T01:57:39.325Z,13.89
2022-10-25T02:03:01.075Z,13.91
2022-10-25T02:08:39.905Z,13.97
2022-10-25T02:14:20.226Z,13.99
2022-10-25T02:19:34.561Z,14.02
2022-10-25T02:24:41.193Z,14.01
2022-10-25T02:29:47.466Z,14.05
2022-10-25T02:34:51.979Z,14.05
2022-10-25T02:39:56.529Z,13.91
2022-10-25T02:45:00.146Z,13.79
2022-10-25T02:50:09.236Z,13.74
2022-10-25T03:03:18.631Z,13.82
2022-10-25T03:08:23.702Z,13.78
2022-10-25T03:13:27.470Z,13.68
2022-10-25T03:18:31.074Z,13.57
2022-10-25T03:23:35.351Z,13.46
2022-10-25T03:28:38.841Z,13.38
2022-10-25T03:33:43.185Z,13.32
2022-10-25T03:38:46.811Z,13.31
2022-10-25T03:43:50.504Z,13.32
2022-10-25T03:48:54.154Z,13.32
2022-10-25T03:53:57.797Z,13.31
2022-10-25T03:59:01.457Z,13.31
2022-10-25T04:04:05.894Z,13.27
2022-10-25T04:09:09.622Z,13.25
2022-10-25T04:14:14.041Z,13.24
2022-10-25T04:19:17.846Z,13.25
2022-10-25T04:24:22.997Z,13.23
2022-10-25T04:29:26.962Z,13.15
2022-10-25T04:34:30.665Z,13.06
2022-10-25T04:39:34.361Z,13.01
2022-10-25T04:44:38.012Z,12.98
2022-10-25T04:49:41.844Z,12.98
2022-10-25T04:54:45.343Z,12.95
2022-10-25T04:59:48.986Z,12.95
2022-10-25T05:04:52.702Z,12.92
2022-10-25T05:09:56.106Z,12.88
2022-10-25T05:14:59.732Z,12.86
2022-10-25T05:20:04.663Z,12.81
2022-10-25T05:25:09.387Z,12.80
2022-10-25T05:30:13.359Z,12.78
2022-10-25T05:35:16.877Z,12.78
2022-10-25T05:40:20.688Z,12.84
2022-10-25T05:45:24.511Z,12.91
2022-10-25T05:50:27.875Z,12.97
2022-10-25T05:55:31.491Z,13.08
2022-10-25T06:00:34.960Z,13.25
2022-10-25T06:05:38.299Z,13.38
2022-10-25T06:10:41.581Z,13.49
2022-10-25T06:15:45.410Z,13.56
2022-10-25T06:20:48.712Z,13.59
2022-10-25T06:25:51.957Z,13.74
2022-10-25T06:31:00.320Z,13.84
2022-10-25T06:36:07.515Z,13.86
2022-10-25T06:41:16.112Z,13.77
2022-10-25T06:46:28.541Z,13.77
2022-10-25T06:51:34.572Z,13.80
2022-10-25T06:56:37.896Z,13.89
2022-10-25T07:01:41.178Z,13.88
2022-10-25T07:06:44.525Z,13.88
2022-10-25T07:11:47.839Z,13.95
2022-10-25T07:16:51.150Z,14.03
2022-10-25T07:21:54.460Z,14.09
2022-10-25T07:27:00.649Z,14.05
2022-10-25T07:32:04.776Z,14.05
2022-10-25T07:37:08.406Z,14.11
2022-10-25T07:42:11.701Z,14.11
2022-10-25T07:47:15.480Z,14.15
2022-10-25T07:52:20.477Z,14.20
2022-10-25T07:57:23.807Z,14.26
2022-10-25T08:02:27.125Z,14.30
2022-10-25T08:07:30.467Z,14.33
2022-10-25T08:12:33.822Z,14.37
2022-10-25T08:17:37.099Z,14.42
2022-10-25T08:22:40.450Z,14.50
2022-10-25T08:27:44.011Z,14.63
2022-10-25T08:32:47.701Z,14.75
2022-10-25T08:37:50.960Z,14.93
2022-10-25T08:43:12.855Z,15.06
2022-10-25T08:48:22.794Z,15.07
2022-10-25T08:53:34.822Z,15.07
2022-10-25T08:58:50.315Z,14.97
2022-10-25T09:03:53.736Z,14.90
2022-10-25T09:09:18.757Z,14.87
2022-10-25T09:14:59.341Z,14.87
2022-10-25T09:20:15.655Z,14.88
2022-10-25T09:25:40.687Z,14.88
2022-10-25T09:30:46.421Z,14.88
2022-10-25T09:35:58.317Z,14.81
2022-10-25T09:41:16.400Z,14.85
2022-10-25T09:46:32.592Z,14.85
2022-10-25T09:52:07.528Z,14.93
2022-10-25T09:57:10.894Z,14.92
2022-10-25T10:02:22.625Z,14.92
2022-10-25T10:07:37.313Z,14.96
2022-10-25T10:13:12.242Z,14.95
2022-10-25T10:18:28.092Z,14.89
2022-10-25T10:23:37.605Z,14.96
2022-10-25T10:28:47.368Z,14.93
2022-10-25T10:33:52.413Z,14.84
2022-10-25T10:39:18.767Z,14.79
2022-10-25T10:44:22.011Z,14.73
2022-10-25T10:49:42.283Z,14.68
2022-10-25T10:54:50.816Z,14.65
2022-10-25T10:59:57.047Z,14.72
2022-10-25T11:05:00.337Z,14.81
2022-10-25T11:10:15.483Z,14.85
2022-10-25T11:15:19.423Z,14.95
2022-10-25T11:20:40.867Z,15.07
2022-10-25T11:25:52.558Z,15.16
2022-10-25T11:37:47.583Z,15.49
2022-10-25T11:43:27.811Z,15.66
2022-10-25T11:49:19.074Z,15.79
2022-10-25T11:54:59.311Z,15.86
2022-10-25T12:00:24.630Z,15.98
2022-10-25T12:05:43.210Z,15.95
2022-10-25T12:10:56.757Z,15.95
2022-10-25T12:16:02.195Z,15.96
2022-10-25T12:21:08.128Z,15.89
2022-10-25T12:26:36.503Z,15.83
2022-10-25T12:31:48.109Z,15.84
2022-10-25T12:37:06.474Z,15.84
2022-10-25T12:42:45.961Z,15.77
2022-10-25T12:47:55.383Z,15.70
2022-10-25T12:53:26.699Z,15.65
2022-10-25T12:59:01.355Z,15.60
2022-10-25T13:04:48.545Z,15.63
2022-10-25T13:09:52.538Z,15.73
2022-10-25T13:14:59.364Z,15.80
2022-10-25T13:20:20.804Z,15.83
2022-10-25T13:25:33.543Z,15.91
2022-10-25T13:30:37.011Z,16.00
2022-10-25T13:35:40.477Z,16.04
2022-10-25T13:40:44.097Z,16.07
2022-10-25T13:45:54.955Z,16.06
2022-10-25T13:51:09.351Z,15.99
2022-10-25T13:56:17.475Z,15.92
2022-10-25T14:01:26.902Z,15.83
2022-10-25T14:06:37.052Z,15.72
2022-10-25T14:11:51.695Z,15.70
2022-10-25T14:17:11.473Z,15.65
2022-10-25T14:22:38.862Z,15.52
2022-10-25T14:27:42.498Z,15.37
2022-10-25T14:33:11.270Z,15.25
2022-10-25T14:38:19.601Z,15.14
2022-10-25T14:43:31.310Z,15.11
2022-10-25T14:48:34.622Z,15.04
2022-10-25T14:53:53.535Z,14.97
2022-10-25T14:59:03.466Z,14.91
2022-10-25T15:04:06.852Z,14.82
2022-10-25T15:14:47.807Z,14.74
2022-10-25T15:20:32.208Z,14.63
2022-10-25T15:25:39.250Z,14.56
2022-10-25T15:31:00.326Z,14.51
2022-10-25T15:36:05.810Z,14.44
2022-10-25T15:41:09.191Z,14.36
2022-10-25T15:46:31.601Z,14.29
2022-10-25T15:51:39.887Z,14.24
2022-10-25T15:56:44.029Z,14.24
2022-10-25T16:01:53.658Z,14.21
2022-10-25T16:06:57.075Z,14.18
2022-10-25T16:12:00.495Z,14.13
2022-10-25T16:17:03.904Z,14.09
2022-10-25T16:22:07.215Z,14.11
2022-10-25T16:27:13.499Z,14.11
2022-10-25T16:32:19.147Z,14.11
2022-10-25T16:37:22.577Z,14.13
2022-10-25T16:42:32.639Z,14.11
2022-10-25T16:47:37.191Z,14.09
2022-10-25T16:52:40.473Z,14.05
2022-10-25T17:20:54.006Z,14.75
2022-10-25T17:26:01.663Z,14.44
2022-10-25T17:31:11.065Z,14.18
2022-10-25T17:36:18.787Z,13.94
2022-10-25T17:41:23.223Z,13.80
2022-10-25T17:46:31.808Z,13.69
2022-10-25T17:51:36.044Z,13.59
2022-10-25T17:56:39.407Z,13.55
2022-10-25T18:01:43.073Z,13.52
2022-10-25T18:06:46.545Z,13.52
2022-10-25T18:11:49.850Z,13.55
2022-10-25T18:16:53.369Z,13.61
2022-10-25T18:22:00.691Z,13.63
2022-10-25T18:27:04.099Z,13.60
2022-10-25T18:32:07.497Z,13.50
2022-10-25T18:37:11.128Z,13.43
2022-10-25T18:42:14.769Z,13.33
2022-10-25T18:47:18.050Z,13.21
2022-10-25T18:52:23.519Z,13.08
2022-10-25T18:57:29.490Z,13.02
2022-10-25T19:02:37.532Z,12.93
2022-10-25T19:07:41.131Z,12.87
2022-10-25T19:12:45.386Z,12.90
2022-10-25T19:17:52.484Z,12.87
2022-10-25T19:22:58.915Z,12.80
2022-10-25T19:28:02.773Z,12.85
2022-10-25T19:33:07.336Z,12.88
2022-10-25T19:38:10.621Z,12.85
2022-10-25T19:43:15.704Z,12.83
2022-10-25T19:48:19.017Z,12.75
2022-10-25T19:53:23.223Z,12.68
2022-10-25T19:58:27.037Z,12.67
2022-10-25T20:03:30.767Z,12.72
2022-10-25T20:08:36.750Z,12.79
2022-10-25T20:13:40.690Z,12.85
2022-10-25T20:18:44.283Z,12.87
2022-10-25T20:23:55.551Z,12.87
2022-10-25T20:29:03.880Z,12.87
2022-10-25T20:34:07.207Z,12.85
2022-10-25T20:39:13.104Z,12.82
2022-10-25T20:44:16.465Z,12.80
2022-10-25T20:49:19.926Z,12.76
2022-10-25T20:54:23.170Z,12.75
2022-10-25T20:59:26.473Z,12.77
2022-10-25T21:04:42.437Z,12.82
2022-10-25T21:09:52.935Z,12.88
2022-10-25T21:14:56.348Z,12.91
2022-10-25T21:19:59.712Z,12.97
2022-10-25T21:25:03.273Z,13.01
2022-10-25T21:30:07.896Z,12.98
2022-10-25T21:35:11.165Z,12.96
2022-10-25T21:40:18.941Z,12.93
2022-10-25T21:45:22.256Z,12.94
2022-10-25T21:50:25.503Z,12.91
2022-10-25T21:55:28.793Z,12.92
2022-10-25T22:00:32.088Z,12.89
2022-10-25T22:05:35.310Z,12.88
2022-10-25T22:10:38.710Z,12.88
2022-10-25T22:15:42.022Z,12.89
2022-10-25T22:20:52.435Z,12.85
2022-10-25T22:26:05.537Z,12.86
2022-10-25T22:31:16.006Z,12.91
2022-10-25T22:36:22.062Z,12.98
2022-10-25T22:41:28.594Z,12.99
2022-10-25T22:46:35.479Z,12.98
2022-10-25T22:51:39.487Z,12.93
2022-10-25T22:56:42.699Z,12.90
2022-10-25T23:01:46.126Z,12.89
2022-10-25T23:06:49.339Z,12.86
2022-10-25T23:11:52.646Z,12.84
2022-10-25T23:16:55.964Z,12.77
2022-10-25T23:21:59.270Z,12.70
2022-10-25T23:27:02.622Z,12.62
2022-10-25T23:32:05.911Z,12.52
2022-10-25T23:37:09.216Z,12.43
2022-10-25T23:42:12.523Z,12.38
2022-10-25T23:47:15.841Z,12.41
2022-10-25T23:52:19.073Z,12.37
2022-10-25T23:57:22.342Z,12.33
